Weather at Currituck County Regional Airport

Public forecast

Using degrees Fahrenheit for public forecast. Weather courtesy of forecast.io.

Current aviation weather report (METAR) for Currituck County Regional Airport

Retrieved 2020/09/26 20:35 UTC (12 minutes ago):

KONX 262035Z AUTO 00000KT 10SM SCT013 BKN023 OVC028 25/24 A2992 RMK AO2 T02450243

Closest aviation forecast (TAF) to Currituck County Regional Airport

Closest forecast is Elizabeth City Regional Airport & Coast Guard Air Station, 11.3 nm (20.9 km) SW. Retrieved 2020/09/26 19:54 UTC (53 minutes ago):

TAF KECG 261848Z 2619/2718 20006KT P6SM VCSH BKN025 OVC040 FM262100 08007KT P6SM VCSH BKN025 FM270600 VRB03KT 5SM BR BKN005 FM270900 VRB03KT 2SM BR OVC003